createdAt,value
2023-09-10T00:02:13.793Z,70.74
2023-09-10T00:04:40.592Z,70.91
2023-09-10T00:07:07.283Z,70.77
2023-09-10T00:09:34.627Z,71.55
2023-09-10T00:12:01.169Z,71.29
2023-09-10T00:14:27.883Z,71.55
2023-09-10T00:16:54.518Z,71.69
2023-09-10T00:19:21.134Z,71.20
2023-09-10T00:21:47.839Z,71.49
2023-09-10T00:24:14.353Z,71.47
2023-09-10T00:26:40.956Z,71.55
2023-09-10T00:29:07.608Z,71.73
2023-09-10T00:31:34.920Z,71.83
2023-09-10T00:34:01.655Z,71.54
2023-09-10T00:36:28.208Z,72.11
2023-09-10T00:38:54.762Z,71.93
2023-09-10T00:41:21.344Z,72.31
2023-09-10T00:43:47.966Z,72.41
2023-09-10T00:46:14.795Z,72.62
2023-09-10T00:48:42.138Z,72.81
2023-09-10T00:51:09.418Z,72.98
2023-09-10T00:53:36.102Z,73.20
2023-09-10T00:56:03.230Z,73.05
2023-09-10T00:58:30.018Z,73.50
2023-09-10T01:00:56.693Z,72.58
2023-09-10T01:03:25.017Z,73.14
2023-09-10T01:05:51.754Z,73.20
2023-09-10T01:08:18.729Z,73.29
2023-09-10T01:11:08.167Z,72.75
2023-09-10T01:14:10.779Z,73.14
2023-09-10T01:16:52.708Z,73.32
2023-09-10T01:19:37.792Z,73.57
2023-09-10T01:22:20.927Z,73.57
2023-09-10T01:24:52.396Z,73.76
2023-09-10T01:27:19.866Z,74.23
2023-09-10T01:29:46.751Z,74.34
2023-09-10T01:32:24.057Z,74.42
2023-09-10T01:34:59.867Z,74.10
2023-09-10T01:37:56.854Z,74.47
2023-09-10T01:40:29.365Z,74.95
2023-09-10T01:42:56.063Z,75.30
2023-09-10T01:45:24.576Z,76.52
2023-09-10T01:47:51.415Z,78.91
2023-09-10T01:50:18.530Z,80.56
2023-09-10T01:52:45.144Z,82.62
2023-09-10T01:55:11.935Z,81.51
2023-09-10T01:57:38.482Z,82.08
2023-09-10T02:00:05.482Z,81.64
2023-09-10T02:02:32.108Z,82.52
2023-09-10T02:04:58.710Z,82.39
2023-09-10T02:07:25.478Z,81.28
2023-09-10T02:09:52.042Z,79.86
2023-09-10T02:12:18.625Z,79.32
2023-09-10T02:14:45.314Z,78.56
2023-09-10T02:17:11.891Z,77.91
2023-09-10T02:19:38.528Z,78.43
2023-09-10T02:22:05.122Z,77.74
2023-09-10T02:24:31.666Z,78.82
2023-09-10T02:26:59.436Z,78.59
2023-09-10T02:31:51.720Z,79.49
2023-09-10T02:34:18.628Z,79.04
2023-09-10T02:36:45.225Z,79.37
2023-09-10T02:39:11.788Z,78.40
2023-09-10T02:41:38.372Z,78.27
2023-09-10T02:44:05.354Z,77.92
2023-09-10T02:46:31.936Z,76.97
2023-09-10T02:48:58.509Z,77.03
2023-09-10T02:51:25.009Z,77.11
2023-09-10T02:53:51.619Z,76.69
2023-09-10T02:56:18.228Z,76.70
2023-09-10T02:58:44.800Z,76.74
2023-09-10T03:01:11.455Z,76.41
2023-09-10T03:03:38.171Z,76.68
2023-09-10T03:06:12.296Z,77.23
2023-09-10T03:08:39.033Z,77.09
2023-09-10T03:11:06.142Z,76.92
2023-09-10T03:13:34.261Z,77.01
2023-09-10T03:16:00.904Z,77.23
2023-09-10T03:18:27.528Z,77.31
2023-09-10T03:20:54.788Z,76.82
2023-09-10T03:23:21.347Z,77.29
2023-09-10T03:25:47.943Z,77.12
2023-09-10T03:28:14.523Z,76.99
2023-09-10T03:30:41.102Z,77.22
2023-09-10T03:33:08.021Z,77.33
2023-09-10T03:35:34.756Z,77.11
2023-09-10T03:38:01.395Z,77.45
2023-09-10T03:40:28.008Z,77.56
2023-09-10T03:42:54.575Z,77.98
2023-09-10T03:45:21.122Z,77.86
2023-09-10T03:47:47.726Z,78.45
2023-09-10T03:50:14.623Z,78.13
2023-09-10T03:52:41.245Z,79.13
2023-09-10T03:55:08.416Z,79.81
2023-09-10T03:57:35.123Z,79.31
2023-09-10T04:00:01.722Z,78.98
2023-09-10T04:02:28.338Z,79.08
2023-09-10T04:04:54.946Z,81.33
2023-09-10T04:07:21.540Z,81.29
2023-09-10T04:09:48.127Z,80.18
2023-09-10T04:12:14.670Z,79.78
2023-09-10T04:14:41.312Z,79.68
2023-09-10T04:17:07.968Z,79.48
2023-09-10T04:19:34.775Z,79.63
2023-09-10T04:22:01.639Z,78.85
2023-09-10T04:24:29.641Z,78.87
2023-09-10T04:26:56.277Z,79.06
2023-09-10T04:29:22.871Z,78.75
2023-09-10T04:31:49.581Z,79.00
2023-09-10T04:34:16.191Z,78.45
2023-09-10T04:36:42.788Z,78.67
2023-09-10T04:39:09.508Z,78.78
2023-09-10T04:41:37.248Z,78.50
2023-09-10T04:44:04.393Z,78.46
2023-09-10T04:46:31.065Z,78.24
2023-09-10T04:48:58.035Z,78.59
2023-09-10T04:51:24.673Z,78.65
2023-09-10T04:53:51.300Z,78.46
2023-09-10T04:56:17.848Z,78.57
2023-09-10T04:58:44.507Z,78.82
2023-09-10T05:01:11.158Z,80.89
2023-09-10T05:03:37.907Z,80.91
2023-09-10T05:06:04.608Z,79.77
2023-09-10T05:08:31.246Z,79.13
2023-09-10T05:10:57.995Z,79.22
2023-09-10T05:13:24.586Z,79.60
2023-09-10T05:15:52.210Z,76.01
2023-09-10T05:18:18.806Z,72.01
2023-09-10T05:23:10.793Z,69.57
2023-09-10T05:25:38.114Z,68.58
2023-09-10T05:28:05.502Z,67.18
2023-09-10T05:30:36.978Z,65.28
2023-09-10T05:33:03.969Z,65.66
2023-09-10T05:35:30.688Z,63.81
2023-09-10T05:37:57.288Z,61.98
2023-09-10T05:40:23.855Z,61.19
2023-09-10T05:42:50.399Z,61.15
2023-09-10T05:45:16.987Z,60.55
2023-09-10T05:47:43.585Z,59.29
2023-09-10T05:50:10.721Z,60.15
2023-09-10T05:52:37.669Z,61.03
2023-09-10T05:55:04.336Z,60.11
2023-09-10T05:57:30.923Z,58.67
2023-09-10T05:59:57.619Z,58.11
2023-09-10T06:02:24.390Z,58.13
2023-09-10T06:04:50.962Z,57.39
2023-09-10T06:07:18.005Z,57.42
2023-09-10T06:09:44.697Z,56.92
2023-09-10T06:12:11.266Z,57.15
2023-09-10T06:14:37.879Z,57.48
2023-09-10T06:17:04.669Z,57.04
2023-09-10T06:19:31.089Z,57.22
2023-09-10T06:21:57.665Z,56.22
2023-09-10T06:24:24.525Z,56.56
2023-09-10T06:26:50.947Z,56.09
2023-09-10T06:29:17.878Z,56.61
2023-09-10T06:31:44.524Z,55.95
2023-09-10T06:34:11.179Z,56.37
2023-09-10T06:36:37.866Z,56.49
2023-09-10T06:39:05.002Z,56.44
2023-09-10T06:41:31.654Z,56.24
2023-09-10T06:43:58.298Z,55.92
2023-09-10T06:46:24.949Z,55.44
2023-09-10T06:48:51.600Z,55.23
2023-09-10T06:51:18.129Z,55.99
2023-09-10T06:53:44.680Z,56.49
2023-09-10T06:56:11.224Z,55.26
2023-09-10T06:58:38.155Z,55.47
2023-09-10T07:01:06.740Z,54.52
2023-09-10T07:03:34.078Z,54.54
2023-09-10T07:06:03.678Z,54.03
2023-09-10T07:08:30.272Z,52.47
2023-09-10T07:10:56.851Z,51.87
2023-09-10T07:13:23.477Z,52.46
2023-09-10T07:15:49.977Z,51.82
2023-09-10T07:18:16.708Z,50.83
2023-09-10T07:20:44.796Z,50.53
2023-09-10T07:23:11.449Z,50.66
2023-09-10T07:25:39.608Z,48.76
2023-09-10T07:28:07.178Z,49.57
2023-09-10T07:30:33.842Z,49.87
2023-09-10T07:33:00.444Z,48.36
2023-09-10T07:35:28.768Z,48.04
2023-09-10T07:37:55.844Z,47.39
2023-09-10T07:40:22.456Z,48.99
2023-09-10T07:42:49.057Z,47.05
2023-09-10T07:45:15.949Z,47.94
2023-09-10T07:47:43.096Z,46.86
2023-09-10T07:50:10.152Z,44.34
2023-09-10T07:52:36.753Z,47.32
2023-09-10T07:55:03.551Z,46.23
2023-09-10T07:57:30.113Z,46.51
2023-09-10T07:59:56.642Z,44.75
2023-09-10T08:02:23.238Z,45.84
2023-09-10T08:04:50.893Z,45.74
2023-09-10T08:07:17.505Z,44.58
2023-09-10T08:09:44.003Z,43.57
2023-09-10T08:12:10.581Z,42.20
2023-09-10T08:14:37.205Z,42.30
2023-09-10T08:17:03.967Z,42.74
2023-09-10T08:19:30.684Z,42.87
2023-09-10T08:21:57.251Z,37.92
2023-09-10T08:24:23.940Z,39.32
2023-09-10T08:26:51.725Z,37.63
2023-09-10T08:29:18.504Z,37.52
2023-09-10T08:31:45.393Z,36.63
2023-09-10T08:34:12.029Z,37.00
2023-09-10T08:36:38.594Z,36.79
2023-09-10T08:39:05.204Z,36.81
2023-09-10T08:42:25.248Z,37.81
2023-09-10T08:44:55.961Z,35.84
2023-09-10T08:47:25.068Z,35.04
2023-09-10T08:49:55.350Z,36.10
2023-09-10T08:52:22.953Z,33.93
2023-09-10T08:54:50.478Z,34.31
2023-09-10T08:57:17.320Z,33.04
2023-09-10T08:59:44.751Z,34.14
2023-09-10T09:02:11.763Z,33.73
2023-09-10T09:04:38.501Z,31.98
2023-09-10T09:07:09.690Z,32.46
2023-09-10T09:09:41.051Z,31.32
2023-09-10T09:12:10.087Z,32.67
2023-09-10T09:14:37.628Z,32.47
2023-09-10T09:17:06.572Z,32.43
2023-09-10T09:19:37.138Z,32.47
2023-09-10T09:22:07.026Z,31.70
2023-09-10T09:24:34.963Z,31.82
2023-09-10T09:27:01.823Z,30.25
2023-09-10T09:29:31.629Z,30.32
2023-09-10T09:31:58.295Z,30.06
2023-09-10T09:34:24.904Z,29.20
2023-09-10T09:36:52.678Z,27.65
2023-09-10T09:39:20.496Z,27.99
2023-09-10T09:41:55.042Z,28.46
2023-09-10T09:44:21.710Z,28.08
2023-09-10T09:46:49.566Z,28.42
2023-09-10T09:49:17.278Z,28.51
2023-09-10T09:51:44.814Z,27.88
2023-09-10T09:54:11.394Z,28.30
2023-09-10T09:56:37.999Z,27.67
2023-09-10T09:59:04.689Z,27.06
2023-09-10T10:01:32.023Z,26.71
2023-09-10T10:03:58.670Z,26.91
2023-09-10T10:06:25.291Z,26.69
2023-09-10T10:08:52.546Z,28.04
2023-09-10T10:11:30.219Z,28.57
2023-09-10T10:14:01.202Z,28.31
2023-09-10T10:16:29.153Z,26.93
2023-09-10T10:21:25.676Z,27.29
2023-09-10T10:23:53.652Z,28.04
2023-09-10T10:26:21.855Z,26.96
2023-09-10T10:28:49.626Z,26.52
2023-09-10T10:31:17.888Z,26.22
2023-09-10T10:34:19.650Z,25.32
2023-09-10T10:37:20.969Z,26.77
2023-09-10T10:40:09.859Z,25.71
2023-09-10T10:42:55.174Z,26.53
2023-09-10T10:45:25.948Z,26.81
2023-09-10T10:47:54.278Z,26.29
2023-09-10T10:50:27.576Z,25.46
2023-09-10T10:53:07.892Z,24.14
2023-09-10T10:55:35.321Z,25.30
2023-09-10T10:58:02.363Z,26.51
2023-09-10T11:00:29.604Z,25.79
2023-09-10T11:03:28.554Z,25.71
2023-09-10T11:05:55.147Z,24.33
2023-09-10T11:08:36.754Z,24.56
2023-09-10T11:11:11.419Z,24.27
2023-09-10T11:14:03.759Z,25.02
2023-09-10T11:16:31.976Z,24.25
2023-09-10T11:18:59.930Z,23.82
2023-09-10T11:21:57.769Z,24.77
2023-09-10T11:24:25.946Z,23.89
2023-09-10T11:27:22.368Z,21.50
2023-09-10T11:30:13.316Z,21.92
2023-09-10T11:32:43.473Z,21.18
2023-09-10T11:35:18.179Z,22.04
2023-09-10T11:37:53.092Z,22.81
2023-09-10T11:40:20.784Z,22.45
2023-09-10T11:42:48.695Z,23.29
2023-09-10T11:45:16.352Z,22.87
2023-09-10T11:47:50.556Z,22.85
2023-09-10T11:50:22.635Z,22.50
2023-09-10T11:52:49.560Z,22.54
2023-09-10T11:55:16.680Z,23.27
2023-09-10T11:57:43.360Z,22.54
2023-09-10T12:00:12.924Z,21.71
2023-09-10T12:02:39.595Z,21.38
2023-09-10T12:05:09.825Z,21.32
2023-09-10T12:07:36.945Z,20.56
2023-09-10T12:10:04.606Z,21.44
2023-09-10T12:12:35.871Z,20.98
2023-09-10T12:15:03.141Z,21.87
2023-09-10T12:17:30.029Z,20.84
2023-09-10T12:19:57.330Z,20.68
2023-09-10T12:22:23.938Z,21.09
2023-09-10T12:24:50.926Z,20.91
2023-09-10T12:27:17.815Z,20.96
2023-09-10T12:29:44.388Z,21.18
2023-09-10T12:32:11.018Z,20.86
2023-09-10T12:34:38.631Z,21.27
2023-09-10T12:37:05.227Z,21.72
2023-09-10T12:39:31.947Z,21.74
2023-09-10T12:42:00.400Z,21.48
2023-09-10T12:44:27.142Z,21.17
2023-09-10T12:46:54.057Z,21.56
2023-09-10T12:49:21.459Z,21.97
2023-09-10T12:51:48.717Z,21.37
2023-09-10T12:54:16.259Z,21.27
2023-09-10T12:56:43.958Z,21.56
2023-09-10T12:59:11.433Z,21.27
2023-09-10T13:01:41.733Z,21.74
2023-09-10T13:04:08.585Z,21.09
2023-09-10T13:06:35.491Z,21.32
2023-09-10T13:09:03.694Z,21.50
2023-09-10T13:11:30.289Z,22.05
2023-09-10T13:13:56.948Z,20.84
2023-09-10T13:16:23.536Z,21.88
2023-09-10T13:18:50.296Z,21.97
2023-09-10T13:21:16.919Z,22.78
2023-09-10T13:23:43.680Z,22.28
2023-09-10T13:26:10.608Z,22.05
2023-09-10T13:28:37.174Z,21.38
2023-09-10T13:31:03.838Z,21.25
2023-09-10T13:33:30.503Z,21.28
2023-09-10T13:35:57.097Z,21.83
2023-09-10T13:38:24.632Z,22.11
2023-09-10T13:40:51.405Z,23.06
2023-09-10T13:43:17.993Z,23.14
2023-09-10T13:45:44.592Z,22.91
2023-09-10T13:48:11.207Z,22.13
2023-09-10T13:50:37.859Z,22.28
2023-09-10T13:53:04.719Z,22.66
2023-09-10T13:55:31.291Z,22.78
2023-09-10T13:57:57.817Z,22.11
2023-09-10T14:00:24.376Z,22.14
2023-09-10T14:02:51.418Z,23.28
2023-09-10T14:05:18.129Z,23.85
2023-09-10T14:07:45.201Z,23.34
2023-09-10T14:10:11.777Z,22.80
2023-09-10T14:12:38.315Z,23.68
2023-09-10T14:15:05.287Z,23.72
2023-09-10T14:17:31.898Z,23.27
2023-09-10T14:19:58.680Z,22.96
2023-09-10T14:22:25.297Z,23.09
2023-09-10T14:24:51.860Z,24.03
2023-09-10T14:27:18.442Z,24.01
2023-09-10T14:29:45.066Z,22.94
2023-09-10T14:32:11.785Z,23.46
2023-09-10T14:34:39.913Z,24.65
2023-09-10T14:37:06.475Z,24.57
2023-09-10T14:39:33.075Z,25.25
2023-09-10T14:41:59.620Z,24.51
2023-09-10T14:44:28.539Z,24.90
2023-09-10T14:46:55.376Z,25.07
2023-09-10T14:49:21.920Z,25.48
2023-09-10T14:51:48.483Z,25.37
2023-09-10T14:54:15.065Z,25.46
2023-09-10T14:56:41.643Z,26.10
2023-09-10T14:59:08.279Z,25.79
2023-09-10T15:01:34.955Z,25.87
2023-09-10T15:04:01.573Z,25.95
2023-09-10T15:06:28.207Z,25.51
2023-09-10T15:08:54.761Z,26.26
2023-09-10T15:11:21.348Z,26.46
2023-09-10T15:13:47.919Z,27.05
2023-09-10T15:16:14.489Z,27.07
2023-09-10T15:18:41.353Z,26.75
2023-09-10T15:21:07.975Z,27.31
2023-09-10T15:23:34.602Z,27.24
2023-09-10T15:26:01.207Z,27.46
2023-09-10T15:28:27.879Z,27.53
2023-09-10T15:30:54.470Z,28.18
2023-09-10T15:33:21.087Z,27.89
2023-09-10T15:35:47.746Z,28.17
2023-09-10T15:38:14.434Z,27.95
2023-09-10T15:40:41.602Z,27.64
2023-09-10T15:43:08.139Z,28.17
2023-09-10T15:45:36.177Z,28.27
2023-09-10T15:48:02.803Z,28.76
2023-09-10T15:50:29.434Z,28.79
2023-09-10T15:52:56.347Z,29.02
2023-09-10T15:55:23.994Z,29.05
2023-09-10T15:57:50.523Z,29.43
2023-09-10T16:00:17.964Z,29.44
2023-09-10T16:02:45.723Z,29.63
2023-09-10T16:05:12.406Z,29.96
2023-09-10T16:07:39.029Z,29.93
2023-09-10T16:12:36.951Z,30.57
2023-09-10T16:15:04.042Z,30.68
2023-09-10T16:17:30.700Z,30.79
2023-09-10T16:19:57.276Z,30.93
2023-09-10T16:22:26.932Z,31.07
2023-09-10T16:24:53.502Z,31.48
2023-09-10T16:27:20.069Z,31.71
2023-09-10T16:29:46.631Z,32.42
2023-09-10T16:32:13.292Z,32.94
2023-09-10T16:34:39.830Z,33.79
2023-09-10T16:37:07.901Z,34.66
2023-09-10T16:39:34.610Z,35.10
2023-09-10T16:42:02.049Z,35.73
2023-09-10T16:44:28.798Z,35.37
2023-09-10T16:46:56.801Z,35.70
2023-09-10T16:49:24.439Z,36.11
2023-09-10T16:51:51.106Z,36.46
2023-09-10T16:54:17.959Z,37.36
2023-09-10T16:56:44.815Z,37.41
2023-09-10T16:59:11.500Z,37.62
2023-09-10T17:01:38.117Z,38.38
2023-09-10T17:04:05.012Z,38.37
2023-09-10T17:06:31.869Z,39.04
2023-09-10T17:08:58.440Z,39.29
2023-09-10T17:11:26.059Z,39.81
2023-09-10T17:13:52.694Z,40.44
2023-09-10T17:16:19.309Z,40.58
2023-09-10T17:18:45.987Z,40.69
2023-09-10T17:21:12.742Z,40.87
2023-09-10T17:23:39.571Z,40.66
2023-09-10T17:26:06.459Z,40.66
2023-09-10T17:28:33.081Z,40.96
2023-09-10T17:30:59.786Z,41.34
2023-09-10T17:33:26.460Z,41.61
2023-09-10T17:35:53.176Z,41.87
2023-09-10T17:38:19.822Z,42.46
2023-09-10T17:40:46.467Z,42.60
2023-09-10T17:43:13.082Z,42.98
2023-09-10T17:45:39.691Z,43.06
2023-09-10T17:48:06.391Z,43.54
2023-09-10T17:50:33.156Z,43.95
2023-09-10T17:52:59.747Z,44.71
2023-09-10T17:55:26.581Z,44.86
2023-09-10T17:57:53.210Z,44.79
2023-09-10T18:00:19.783Z,45.08
2023-09-10T18:02:46.566Z,45.42
2023-09-10T18:05:13.265Z,45.69
2023-09-10T18:07:39.877Z,46.26
2023-09-10T18:10:06.892Z,46.49
2023-09-10T18:12:33.624Z,46.93
2023-09-10T18:15:00.225Z,47.30
2023-09-10T18:17:26.868Z,47.55
2023-09-10T18:19:53.507Z,47.86
2023-09-10T18:22:19.905Z,48.12
2023-09-10T18:24:47.648Z,48.14
2023-09-10T18:27:14.326Z,48.34
2023-09-10T18:29:40.997Z,48.80
2023-09-10T18:32:08.117Z,48.88
2023-09-10T18:34:34.989Z,49.01
2023-09-10T18:37:02.597Z,49.23
2023-09-10T18:39:32.047Z,49.94
2023-09-10T18:41:58.631Z,50.52
2023-09-10T18:44:25.095Z,50.84
2023-09-10T18:46:58.196Z,50.78
2023-09-10T18:49:24.812Z,50.90
2023-09-10T18:52:10.683Z,51.10
2023-09-10T18:54:39.676Z,51.44
2023-09-10T18:57:07.637Z,51.62
2023-09-10T18:59:34.460Z,51.77
2023-09-10T19:02:01.388Z,51.96
2023-09-10T19:04:28.403Z,52.20
2023-09-10T19:06:55.397Z,52.06
2023-09-10T19:09:22.351Z,52.17
2023-09-10T19:11:48.913Z,52.99
2023-09-10T19:14:15.910Z,53.70
2023-09-10T19:16:43.777Z,54.04
2023-09-10T19:19:10.571Z,53.17
2023-09-10T19:21:39.594Z,53.39
2023-09-10T19:24:06.466Z,53.54
2023-09-10T19:26:33.092Z,54.18
2023-09-10T19:28:59.794Z,54.27
2023-09-10T19:31:26.296Z,54.38
2023-09-10T19:33:52.936Z,54.56
2023-09-10T19:36:19.536Z,54.36
2023-09-10T19:38:46.073Z,54.45
2023-09-10T19:41:12.704Z,54.27
2023-09-10T19:43:39.691Z,54.46
2023-09-10T19:46:06.536Z,54.52
2023-09-10T19:48:33.155Z,55.07
2023-09-10T19:51:04.209Z,55.36
2023-09-10T19:53:30.788Z,55.85
2023-09-10T19:56:01.453Z,57.31
2023-09-10T19:58:31.975Z,58.05
2023-09-10T20:00:58.901Z,57.33
2023-09-10T20:03:25.749Z,57.05
2023-09-10T20:05:54.494Z,57.05
2023-09-10T20:08:21.082Z,57.22
2023-09-10T20:10:47.956Z,57.34
2023-09-10T20:13:18.154Z,57.68
2023-09-10T20:15:44.656Z,57.61
2023-09-10T20:18:11.283Z,57.92
2023-09-10T20:23:29.937Z,58.24
2023-09-10T20:25:56.479Z,58.50
2023-09-10T20:28:23.116Z,58.69
2023-09-10T20:30:50.418Z,59.14
2023-09-10T20:33:17.173Z,59.19
2023-09-10T20:35:44.108Z,59.33
2023-09-10T20:38:13.541Z,59.16
2023-09-10T20:40:40.308Z,59.62
2023-09-10T20:43:06.874Z,59.60
2023-09-10T20:45:36.856Z,59.74
2023-09-10T20:48:03.742Z,59.99
2023-09-10T20:50:30.968Z,60.19
2023-09-10T20:52:58.776Z,60.39
2023-09-10T20:55:25.319Z,60.14
2023-09-10T20:57:52.174Z,60.47
2023-09-10T21:00:18.779Z,60.87
2023-09-10T21:02:45.457Z,61.42
2023-09-10T21:05:12.388Z,61.35
2023-09-10T21:07:39.383Z,62.03
2023-09-10T21:10:06.567Z,62.01
2023-09-10T21:12:33.119Z,61.92
2023-09-10T21:14:59.661Z,62.25
2023-09-10T21:17:26.238Z,62.43
2023-09-10T21:19:52.892Z,62.32
2023-09-10T21:22:21.125Z,62.33
2023-09-10T21:24:47.695Z,62.71
2023-09-10T21:27:14.261Z,62.86
2023-09-10T21:29:40.857Z,63.27
2023-09-10T21:32:07.664Z,63.36
2023-09-10T21:34:34.151Z,63.13
2023-09-10T21:37:00.834Z,63.62
2023-09-10T21:39:27.424Z,63.64
2023-09-10T21:41:54.121Z,63.87
2023-09-10T21:44:20.764Z,63.83
2023-09-10T21:46:47.341Z,64.03
2023-09-10T21:49:13.882Z,64.38
2023-09-10T21:51:40.380Z,64.46
2023-09-10T21:54:06.974Z,64.31
2023-09-10T21:56:33.553Z,64.64
2023-09-10T21:59:00.140Z,64.50
2023-09-10T22:01:26.735Z,64.68
2023-09-10T22:03:53.435Z,64.55
2023-09-10T22:06:20.028Z,64.69
2023-09-10T22:08:46.621Z,64.58
2023-09-10T22:11:13.232Z,64.97
2023-09-10T22:13:40.255Z,65.59
2023-09-10T22:16:08.013Z,66.21
2023-09-10T22:18:34.641Z,67.02
2023-09-10T22:21:01.334Z,67.36
2023-09-10T22:23:33.043Z,67.38
2023-09-10T22:26:00.099Z,67.15
2023-09-10T22:28:26.765Z,66.82
2023-09-10T22:30:53.343Z,67.24
2023-09-10T22:33:19.895Z,68.69
2023-09-10T22:35:46.561Z,68.17
2023-09-10T22:38:13.343Z,67.99
2023-09-10T22:40:39.896Z,67.54
2023-09-10T22:43:06.461Z,67.79
2023-09-10T22:45:34.454Z,68.00
2023-09-10T22:48:01.134Z,67.67
2023-09-10T22:50:27.736Z,67.75
2023-09-10T22:52:54.338Z,67.99
2023-09-10T22:55:20.988Z,68.06
2023-09-10T22:57:47.578Z,67.69
2023-09-10T23:00:14.422Z,67.78
2023-09-10T23:02:41.121Z,68.13
2023-09-10T23:05:08.177Z,68.19
2023-09-10T23:07:34.621Z,68.58
2023-09-10T23:10:12.160Z,68.80
2023-09-10T23:12:46.529Z,68.81
2023-09-10T23:15:13.108Z,69.26
2023-09-10T23:17:39.735Z,68.92
2023-09-10T23:20:06.841Z,69.11
2023-09-10T23:22:34.813Z,69.06
2023-09-10T23:25:01.342Z,69.27
2023-09-10T23:27:27.931Z,69.23
2023-09-10T23:29:54.486Z,69.56
2023-09-10T23:32:21.160Z,69.70
2023-09-10T23:34:47.764Z,69.55
2023-09-10T23:37:14.437Z,70.13
2023-09-10T23:39:41.020Z,70.11
2023-09-10T23:42:07.647Z,70.03
2023-09-10T23:44:35.722Z,70.37
2023-09-10T23:47:02.433Z,70.19
2023-09-10T23:51:55.020Z,70.14
2023-09-10T23:54:21.542Z,70.13
2023-09-10T23:56:48.141Z,70.21
2023-09-10T23:59:14.819Z,70.78
